createdAt,value
2022-09-24T00:01:48.535Z,99.90
2022-09-24T00:04:16.293Z,99.90
2022-09-24T00:06:46.277Z,99.90
2022-09-24T00:09:16.018Z,99.90
2022-09-24T00:11:45.543Z,99.90
2022-09-24T00:14:14.051Z,99.90
2022-09-24T00:16:43.868Z,99.90
2022-09-24T00:19:13.851Z,99.90
2022-09-24T00:21:43.002Z,99.90
2022-09-24T00:24:34.031Z,99.90
2022-09-24T00:27:03.128Z,99.90
2022-09-24T00:29:34.048Z,99.90
2022-09-24T00:32:02.394Z,99.90
2022-09-24T00:34:30.378Z,99.90
2022-09-24T00:36:58.200Z,99.90
2022-09-24T00:39:25.737Z,99.90
2022-09-24T00:41:53.369Z,99.90
2022-09-24T00:44:50.804Z,99.90
2022-09-24T00:47:32.345Z,99.90
2022-09-24T00:50:09.118Z,99.90
2022-09-24T00:52:42.353Z,99.90
2022-09-24T00:55:11.543Z,99.90
2022-09-24T00:57:40.296Z,99.90
2022-09-24T01:00:08.739Z,99.90
2022-09-24T01:02:39.236Z,99.90
2022-09-24T01:05:07.139Z,99.90
2022-09-24T01:07:35.409Z,99.90
2022-09-24T01:10:04.634Z,99.90
2022-09-24T01:12:41.063Z,99.90
2022-09-24T01:15:08.587Z,99.90
2022-09-24T01:18:07.488Z,99.90
2022-09-24T01:20:53.469Z,99.90
2022-09-24T01:23:47.738Z,99.90
2022-09-24T01:26:42.393Z,99.90
2022-09-24T01:29:28.857Z,99.90
2022-09-24T01:32:06.053Z,99.90
2022-09-24T01:34:47.855Z,99.90
2022-09-24T01:37:17.278Z,99.90
2022-09-24T01:39:46.975Z,99.90
2022-09-24T01:42:15.638Z,99.90
2022-09-24T01:44:44.385Z,99.90
2022-09-24T01:47:20.139Z,99.90
2022-09-24T01:49:47.941Z,99.90
2022-09-24T01:52:20.082Z,99.90
2022-09-24T01:54:51.992Z,99.90
2022-09-24T01:57:22.642Z,99.90
2022-09-24T02:00:10.637Z,99.90
2022-09-24T02:02:57.813Z,99.90
2022-09-24T02:05:46.754Z,99.90
2022-09-24T02:08:22.278Z,99.90
2022-09-24T02:11:02.500Z,99.90
2022-09-24T02:13:39.628Z,99.90
2022-09-24T02:16:11.401Z,99.90
2022-09-24T02:18:42.809Z,99.90
2022-09-24T02:21:13.701Z,99.90
2022-09-24T02:23:52.090Z,99.90
2022-09-24T02:26:20.023Z,99.90
2022-09-24T02:28:47.634Z,99.90
2022-09-24T02:31:21.763Z,99.90
2022-09-24T02:34:10.654Z,99.90
2022-09-24T02:36:41.946Z,99.90
2022-09-24T02:39:09.488Z,99.90
2022-09-24T02:41:37.673Z,99.90
2022-09-24T02:44:05.410Z,99.90
2022-09-24T02:46:33.239Z,99.90
2022-09-24T02:49:00.998Z,99.90
2022-09-24T02:51:29.150Z,99.90
2022-09-24T02:53:56.976Z,99.90
2022-09-24T02:56:24.934Z,99.90
2022-09-24T02:58:53.741Z,99.90
2022-09-24T03:01:22.645Z,99.90
2022-09-24T03:03:51.398Z,99.90
2022-09-24T03:06:19.334Z,99.90
2022-09-24T03:08:47.333Z,99.90
2022-09-24T03:11:18.515Z,99.90
2022-09-24T03:13:46.956Z,99.90
2022-09-24T03:16:14.849Z,99.90
2022-09-24T03:18:42.964Z,99.90
2022-09-24T03:21:12.943Z,99.90
2022-09-24T03:23:40.812Z,99.90
2022-09-24T03:26:09.081Z,99.90
2022-09-24T03:28:37.383Z,99.90
2022-09-24T03:31:05.382Z,99.90
2022-09-24T03:33:33.197Z,99.90
2022-09-24T03:36:06.247Z,99.90
2022-09-24T03:38:35.134Z,99.90
2022-09-24T03:41:03.814Z,99.90
2022-09-24T03:43:31.958Z,99.90
2022-09-24T03:45:59.989Z,99.90
2022-09-24T03:48:27.991Z,99.90
2022-09-24T03:50:56.121Z,99.90
2022-09-24T03:53:24.012Z,99.90
2022-09-24T03:55:57.090Z,99.90
2022-09-24T03:58:25.197Z,99.90
2022-09-24T04:00:54.321Z,99.90
2022-09-24T04:03:22.890Z,99.90
2022-09-24T04:05:51.374Z,99.90
2022-09-24T04:08:20.305Z,99.90
2022-09-24T04:10:49.828Z,99.90
2022-09-24T04:13:18.755Z,99.90
2022-09-24T04:15:46.763Z,99.90
2022-09-24T04:18:14.341Z,99.90
2022-09-24T04:20:42.350Z,99.90
2022-09-24T04:23:10.700Z,99.90
2022-09-24T04:25:40.612Z,99.90
2022-09-24T04:28:09.892Z,99.90
2022-09-24T04:30:38.294Z,99.90
2022-09-24T04:33:07.258Z,99.90
2022-09-24T04:35:36.435Z,99.90
2022-09-24T04:38:05.575Z,99.90
2022-09-24T04:40:33.845Z,99.90
2022-09-24T04:43:02.982Z,99.90
2022-09-24T04:45:30.610Z,99.90
2022-09-24T04:47:58.662Z,99.90
2022-09-24T04:50:29.077Z,99.90
2022-09-24T04:52:56.895Z,99.90
2022-09-24T04:55:26.155Z,99.90
2022-09-24T04:57:58.092Z,99.90
2022-09-24T05:00:25.919Z,99.90
2022-09-24T05:03:03.796Z,99.90
2022-09-24T05:05:33.400Z,99.90
2022-09-24T05:08:01.684Z,99.90
2022-09-24T05:10:31.759Z,99.90
2022-09-24T05:12:59.625Z,99.90
2022-09-24T05:15:27.396Z,99.90
2022-09-24T05:17:54.921Z,99.90
2022-09-24T05:20:22.675Z,99.90
2022-09-24T05:22:50.727Z,99.90
2022-09-24T05:25:19.987Z,99.90
2022-09-24T05:27:49.224Z,99.90
2022-09-24T05:30:18.550Z,99.90
2022-09-24T05:32:49.580Z,99.90
2022-09-24T05:35:17.945Z,99.90
2022-09-24T05:37:46.136Z,99.90
2022-09-24T05:40:32.423Z,99.90
2022-09-24T05:43:04.141Z,99.90
2022-09-24T05:45:32.249Z,99.90
2022-09-24T05:48:00.300Z,99.90
2022-09-24T05:50:28.370Z,99.90
2022-09-24T05:52:56.419Z,99.90
2022-09-24T05:55:27.704Z,99.90
2022-09-24T05:58:08.188Z,99.90
2022-09-24T06:00:36.366Z,99.90
2022-09-24T06:03:07.968Z,99.90
2022-09-24T06:05:35.861Z,99.90
2022-09-24T06:08:04.721Z,99.90
2022-09-24T06:10:33.671Z,99.90
2022-09-24T06:13:01.560Z,99.90
2022-09-24T06:15:29.882Z,99.90
2022-09-24T06:17:57.506Z,99.90
2022-09-24T06:20:25.093Z,99.90
2022-09-24T06:22:57.486Z,99.90
2022-09-24T06:25:26.859Z,99.90
2022-09-24T06:28:03.202Z,99.90
2022-09-24T06:30:40.176Z,99.90
2022-09-24T06:33:10.104Z,99.90
2022-09-24T06:35:42.875Z,99.90
2022-09-24T06:38:16.378Z,99.90
2022-09-24T06:40:45.721Z,99.90
2022-09-24T06:43:13.648Z,99.90
2022-09-24T06:45:43.210Z,99.90
2022-09-24T06:48:13.079Z,99.90
2022-09-24T06:50:43.806Z,99.90
2022-09-24T06:53:12.893Z,99.90
2022-09-24T06:55:40.841Z,99.90
2022-09-24T06:58:14.773Z,99.90
2022-09-24T07:00:43.330Z,99.90
2022-09-24T07:03:17.807Z,99.90
2022-09-24T07:05:45.875Z,99.90
2022-09-24T07:08:14.261Z,99.90
2022-09-24T07:10:45.277Z,99.90
2022-09-24T07:13:14.110Z,99.90
2022-09-24T07:15:43.874Z,99.90
2022-09-24T07:18:12.813Z,99.90
2022-09-24T07:20:40.845Z,99.90
2022-09-24T07:23:10.706Z,99.90
2022-09-24T07:25:39.901Z,99.90
2022-09-24T07:28:11.486Z,99.90
2022-09-24T07:30:41.502Z,99.90
2022-09-24T07:33:10.496Z,99.90
2022-09-24T07:35:39.975Z,99.90
2022-09-24T07:38:12.723Z,99.90
2022-09-24T07:40:42.850Z,99.90
2022-09-24T07:43:13.957Z,99.90
2022-09-24T07:45:42.732Z,99.90
2022-09-24T07:48:11.622Z,99.90
2022-09-24T07:50:41.125Z,99.90
2022-09-24T07:53:13.209Z,99.90
2022-09-24T07:55:41.374Z,99.90
2022-09-24T07:58:13.857Z,99.90
2022-09-24T08:00:42.485Z,99.90
2022-09-24T08:03:10.840Z,99.90
2022-09-24T08:05:45.440Z,99.90
2022-09-24T08:08:13.885Z,99.90
2022-09-24T08:10:42.576Z,99.90
2022-09-24T08:13:11.046Z,99.90
2022-09-24T08:15:39.174Z,99.90
2022-09-24T08:18:07.981Z,99.90
2022-09-24T08:20:37.904Z,99.90
2022-09-24T08:23:10.035Z,99.90
2022-09-24T08:25:37.794Z,99.90
2022-09-24T08:28:07.420Z,99.90
2022-09-24T08:30:36.866Z,99.90
2022-09-24T08:33:07.282Z,99.90
2022-09-24T08:35:35.954Z,99.90
2022-09-24T08:38:03.858Z,99.90
2022-09-24T08:40:38.219Z,99.90
2022-09-24T08:43:34.914Z,99.90
2022-09-24T08:46:43.167Z,99.90
2022-09-24T08:49:17.171Z,99.90
2022-09-24T08:52:20.426Z,98.80
2022-09-24T08:54:51.181Z,97.10
2022-09-24T08:57:20.530Z,96.30
2022-09-24T08:59:52.462Z,94.90
2022-09-24T09:02:36.367Z,94.10
2022-09-24T09:05:27.427Z,92.50
2022-09-24T09:08:27.383Z,89.10
2022-09-24T09:11:02.215Z,88.60
2022-09-24T09:14:05.215Z,85.10
2022-09-24T09:16:55.542Z,83.50
2022-09-24T09:19:28.072Z,81.30
2022-09-24T09:22:05.577Z,81.90
2022-09-24T09:24:49.577Z,78.60
2022-09-24T09:27:19.160Z,77.20
2022-09-24T09:29:55.481Z,76.60
2022-09-24T09:32:41.264Z,75.20
2022-09-24T09:35:14.368Z,71.90
2022-09-24T09:38:03.574Z,71.10
2022-09-24T09:40:46.128Z,67.30
2022-09-24T09:43:15.187Z,65.50
2022-09-24T09:46:09.801Z,63.50
2022-09-24T09:48:52.332Z,59.90
2022-09-24T09:51:23.321Z,59.00
2022-09-24T09:53:59.739Z,58.30
2022-09-24T09:56:34.934Z,57.50
2022-09-24T09:59:29.710Z,56.20
2022-09-24T10:01:58.089Z,54.60
2022-09-24T10:04:39.279Z,56.40
2022-09-24T10:07:17.065Z,55.80
2022-09-24T10:09:46.833Z,54.60
2022-09-24T10:12:24.197Z,55.40
2022-09-24T10:15:00.494Z,53.00
2022-09-24T10:17:37.447Z,52.70
2022-09-24T10:20:22.246Z,51.80
2022-09-24T10:22:56.157Z,50.60
2022-09-24T10:25:28.484Z,50.50
2022-09-24T10:28:34.006Z,50.90
2022-09-24T10:31:13.592Z,49.50
2022-09-24T10:33:43.981Z,50.10
2022-09-24T10:36:19.226Z,49.80
2022-09-24T10:38:47.078Z,49.10
2022-09-24T10:41:29.189Z,48.40
2022-09-24T10:44:02.538Z,48.40
2022-09-24T10:47:00.158Z,47.70
2022-09-24T10:49:42.984Z,47.50
2022-09-24T10:52:45.094Z,48.20
2022-09-24T10:55:39.162Z,48.30
2022-09-24T10:58:09.577Z,48.90
2022-09-24T11:00:56.841Z,48.00
2022-09-24T11:03:33.455Z,47.90
2022-09-24T11:06:05.703Z,48.00
2022-09-24T11:08:54.207Z,48.30
2022-09-24T11:11:52.525Z,48.10
2022-09-24T11:14:20.108Z,48.20
2022-09-24T11:16:47.545Z,47.90
2022-09-24T11:19:42.590Z,46.90
2022-09-24T11:22:22.940Z,45.80
2022-09-24T11:25:09.394Z,45.50
2022-09-24T11:28:00.688Z,45.70
2022-09-24T11:30:35.942Z,46.40
2022-09-24T11:33:52.298Z,47.00
2022-09-24T11:36:34.216Z,47.60
2022-09-24T11:39:07.678Z,47.20
2022-09-24T11:41:55.484Z,48.40
2022-09-24T11:44:31.999Z,49.50
2022-09-24T11:47:18.823Z,50.20
2022-09-24T11:50:04.510Z,51.10
2022-09-24T11:52:45.365Z,51.40
2022-09-24T11:55:12.998Z,52.10
2022-09-24T11:58:02.589Z,52.20
2022-09-24T12:00:40.592Z,50.60
2022-09-24T12:03:19.853Z,50.60
2022-09-24T12:06:24.501Z,50.90
2022-09-24T12:09:18.496Z,52.50
2022-09-24T12:11:48.006Z,53.60
2022-09-24T12:14:30.125Z,54.90
2022-09-24T12:17:02.952Z,56.70
2022-09-24T12:20:08.773Z,57.80
2022-09-24T12:22:38.814Z,59.40
2022-09-24T12:25:12.084Z,60.20
2022-09-24T12:27:40.358Z,61.80
2022-09-24T12:30:47.656Z,63.60
2022-09-24T12:33:23.627Z,65.50
2022-09-24T12:35:51.100Z,66.60
2022-09-24T12:38:30.046Z,67.70
2022-09-24T12:41:19.090Z,68.70
2022-09-24T12:43:58.666Z,69.20
2022-09-24T12:46:32.663Z,70.10
2022-09-24T12:49:01.473Z,69.80
2022-09-24T12:51:38.360Z,69.40
2022-09-24T12:54:18.142Z,67.30
2022-09-24T12:56:46.010Z,63.80
2022-09-24T12:59:28.306Z,60.50
2022-09-24T13:02:07.149Z,59.80
2022-09-24T13:04:34.964Z,59.80
2022-09-24T13:07:02.517Z,60.60
2022-09-24T13:09:38.261Z,59.30
2022-09-24T13:12:18.147Z,55.20
2022-09-24T13:14:57.770Z,53.50
2022-09-24T13:17:25.573Z,53.40
2022-09-24T13:20:08.457Z,52.50
2022-09-24T13:22:37.933Z,53.70
2022-09-24T13:25:26.497Z,55.30
2022-09-24T13:28:03.053Z,56.40
2022-09-24T13:30:30.555Z,56.40
2022-09-24T13:33:07.601Z,57.00
2022-09-24T13:36:06.604Z,57.70
2022-09-24T13:38:45.055Z,58.20
2022-09-24T13:41:57.910Z,58.80
2022-09-24T13:44:35.747Z,59.30
2022-09-24T13:47:24.922Z,59.30
2022-09-24T13:49:55.889Z,57.60
2022-09-24T13:52:41.964Z,55.10
2022-09-24T13:55:16.509Z,53.00
2022-09-24T13:57:45.814Z,50.80
2022-09-24T14:00:24.515Z,48.50
2022-09-24T14:03:00.326Z,46.60
2022-09-24T14:05:29.353Z,44.80
2022-09-24T14:08:11.151Z,43.50
2022-09-24T14:10:40.190Z,42.20
2022-09-24T14:13:13.745Z,42.10
2022-09-24T14:16:08.617Z,42.70
2022-09-24T14:18:40.154Z,43.50
2022-09-24T14:21:28.532Z,44.70
2022-09-24T14:24:01.291Z,46.20
2022-09-24T14:26:49.450Z,47.70
2022-09-24T14:29:22.319Z,49.00
2022-09-24T14:31:55.093Z,49.90
2022-09-24T14:34:38.711Z,50.70
2022-09-24T14:37:20.402Z,52.00
2022-09-24T14:39:51.977Z,53.00
2022-09-24T14:42:31.315Z,54.00
2022-09-24T14:45:01.254Z,55.10
2022-09-24T14:47:33.665Z,56.10
2022-09-24T14:50:04.186Z,57.30
2022-09-24T14:52:40.006Z,58.30
2022-09-24T14:55:18.023Z,59.80
2022-09-24T14:57:49.598Z,59.70
2022-09-24T15:00:48.904Z,60.40
2022-09-24T15:03:21.556Z,61.70
2022-09-24T15:05:49.318Z,61.90
2022-09-24T15:08:28.018Z,62.90
2022-09-24T15:10:58.833Z,62.10
2022-09-24T15:13:31.119Z,62.00
2022-09-24T15:16:27.941Z,62.40
2022-09-24T15:19:20.276Z,62.60
2022-09-24T15:21:57.918Z,62.30
2022-09-24T15:24:25.616Z,62.20
2022-09-24T15:27:05.546Z,62.20
2022-09-24T15:29:33.236Z,62.20
2022-09-24T15:32:02.260Z,62.40
2022-09-24T15:34:30.102Z,62.90
2022-09-24T15:36:59.663Z,63.50
2022-09-24T15:39:28.282Z,63.30
2022-09-24T15:41:56.041Z,63.40
2022-09-24T15:44:31.248Z,63.40
2022-09-24T15:47:01.291Z,63.50
2022-09-24T15:49:28.845Z,64.00
2022-09-24T15:52:06.437Z,64.10
2022-09-24T15:54:34.586Z,64.40
2022-09-24T15:57:02.774Z,64.40
2022-09-24T15:59:30.751Z,64.50
2022-09-24T16:02:02.280Z,64.80
2022-09-24T16:04:30.056Z,65.10
2022-09-24T16:06:57.710Z,65.00
2022-09-24T16:09:25.280Z,65.10
2022-09-24T16:11:53.672Z,65.40
2022-09-24T16:14:21.197Z,65.50
2022-09-24T16:16:48.679Z,65.70
2022-09-24T16:19:16.259Z,65.70
2022-09-24T16:21:43.743Z,66.00
2022-09-24T16:24:11.272Z,66.00
2022-09-24T16:26:38.841Z,66.00
2022-09-24T16:29:07.112Z,66.00
2022-09-24T16:31:35.898Z,66.40
2022-09-24T16:34:04.113Z,66.60
2022-09-24T16:36:31.624Z,66.80
2022-09-24T16:39:00.025Z,67.20
2022-09-24T16:41:27.556Z,67.30
2022-09-24T16:43:58.716Z,67.50
2022-09-24T16:46:26.259Z,67.80
2022-09-24T16:48:54.074Z,68.20
2022-09-24T16:51:21.818Z,68.50
2022-09-24T16:53:54.059Z,69.00
2022-09-24T16:56:22.598Z,69.70
2022-09-24T16:58:50.856Z,70.00
2022-09-24T17:01:20.493Z,70.10
2022-09-24T17:03:55.947Z,70.30
2022-09-24T17:06:29.067Z,70.30
2022-09-24T17:09:16.284Z,70.20
2022-09-24T17:11:46.740Z,70.30
2022-09-24T17:14:15.066Z,70.10
2022-09-24T17:16:44.167Z,70.00
2022-09-24T17:19:12.641Z,69.60
2022-09-24T17:21:42.655Z,69.60
2022-09-24T17:24:10.612Z,69.90
2022-09-24T17:26:39.253Z,70.40
2022-09-24T17:29:06.905Z,70.90
2022-09-24T17:31:34.722Z,71.20
2022-09-24T17:34:04.846Z,71.80
2022-09-24T17:36:34.093Z,72.60
2022-09-24T17:39:01.758Z,73.20
2022-09-24T17:41:30.405Z,73.90
2022-09-24T17:43:59.498Z,74.60
2022-09-24T17:46:29.686Z,75.10
2022-09-24T17:49:00.207Z,75.60
2022-09-24T17:51:27.963Z,76.10
2022-09-24T17:53:55.902Z,77.00
2022-09-24T17:56:25.571Z,77.90
2022-09-24T17:58:55.269Z,79.20
2022-09-24T18:01:28.372Z,80.40
2022-09-24T18:03:58.126Z,81.50
2022-09-24T18:06:32.540Z,82.40
2022-09-24T18:09:02.287Z,83.40
2022-09-24T18:11:39.130Z,84.80
2022-09-24T18:14:07.087Z,86.00
2022-09-24T18:16:34.944Z,87.00
2022-09-24T18:19:03.560Z,87.80
2022-09-24T18:21:31.692Z,88.50
2022-09-24T18:24:00.801Z,89.40
2022-09-24T18:26:34.871Z,90.10
2022-09-24T18:29:07.463Z,90.50
2022-09-24T18:31:35.167Z,91.10
2022-09-24T18:34:06.178Z,91.50
2022-09-24T18:36:36.109Z,91.90
2022-09-24T18:39:06.141Z,92.60
2022-09-24T18:41:34.660Z,93.10
2022-09-24T18:44:02.978Z,93.70
2022-09-24T18:46:32.735Z,94.40
2022-09-24T18:49:02.208Z,95.00
2022-09-24T18:51:35.823Z,95.60
2022-09-24T18:54:11.162Z,96.00
2022-09-24T18:56:38.930Z,96.40
2022-09-24T18:59:15.953Z,96.70
2022-09-24T19:01:46.245Z,97.20
2022-09-24T19:04:14.928Z,97.50
2022-09-24T19:06:45.438Z,97.80
2022-09-24T19:09:14.854Z,98.10
2022-09-24T19:11:42.462Z,98.30
2022-09-24T19:14:12.847Z,98.80
2022-09-24T19:16:41.071Z,99.20
2022-09-24T19:19:10.455Z,99.50
2022-09-24T19:21:38.798Z,99.80
2022-09-24T19:24:08.171Z,99.90
2022-09-24T19:26:36.700Z,99.90
2022-09-24T19:29:05.150Z,99.90
2022-09-24T19:31:41.998Z,99.90
2022-09-24T19:34:13.346Z,99.90
2022-09-24T19:36:44.907Z,99.90
2022-09-24T19:39:15.844Z,99.90
2022-09-24T19:41:43.585Z,99.90
2022-09-24T19:44:12.057Z,99.90
2022-09-24T19:46:41.177Z,99.90
2022-09-24T19:49:09.083Z,99.90
2022-09-24T19:51:37.136Z,99.90
2022-09-24T19:54:07.523Z,99.90
2022-09-24T19:56:36.370Z,99.90
2022-09-24T19:59:05.431Z,99.90
2022-09-24T20:01:33.962Z,99.90
2022-09-24T20:04:05.597Z,99.90
2022-09-24T20:06:34.403Z,99.90
2022-09-24T20:09:02.070Z,99.90
2022-09-24T20:11:32.417Z,99.90
2022-09-24T20:14:01.444Z,99.90
2022-09-24T20:16:33.271Z,99.90
2022-09-24T20:19:02.994Z,99.90
2022-09-24T20:21:35.166Z,99.90
2022-09-24T20:24:04.240Z,99.90
2022-09-24T20:26:50.916Z,99.90
2022-09-24T20:29:22.931Z,99.90
2022-09-24T20:31:53.276Z,99.90
2022-09-24T20:34:26.453Z,99.90
2022-09-24T20:36:54.793Z,99.90
2022-09-24T20:39:22.441Z,99.90
2022-09-24T20:41:50.108Z,99.90
2022-09-24T20:44:18.112Z,99.90
2022-09-24T20:46:45.671Z,99.90
2022-09-24T20:49:19.509Z,99.90
2022-09-24T20:51:47.242Z,99.90
2022-09-24T20:54:15.822Z,99.90
2022-09-24T20:56:43.688Z,99.90
2022-09-24T20:59:11.369Z,99.90
2022-09-24T21:01:39.465Z,99.90
2022-09-24T21:04:07.075Z,99.90
2022-09-24T21:06:37.140Z,99.90
2022-09-24T21:09:04.714Z,99.90
2022-09-24T21:11:33.123Z,99.90
2022-09-24T21:14:01.312Z,99.90
2022-09-24T21:16:33.869Z,99.90
2022-09-24T21:19:04.846Z,99.90
2022-09-24T21:21:36.545Z,99.90
2022-09-24T21:24:04.787Z,99.90
2022-09-24T21:26:34.449Z,99.90
2022-09-24T21:29:17.746Z,99.90
2022-09-24T21:31:47.560Z,99.90
2022-09-24T21:34:17.451Z,99.90
2022-09-24T21:36:45.876Z,99.90
2022-09-24T21:39:19.080Z,99.90
2022-09-24T21:41:55.016Z,99.90
2022-09-24T21:44:22.654Z,99.90
2022-09-24T21:46:52.595Z,99.90
2022-09-24T21:49:21.051Z,99.90
2022-09-24T21:51:48.635Z,99.90
2022-09-24T21:54:18.262Z,99.90
2022-09-24T21:56:46.436Z,99.90
2022-09-24T21:59:33.768Z,99.90
2022-09-24T22:02:02.381Z,99.90
2022-09-24T22:04:32.419Z,99.90
2022-09-24T22:07:00.300Z,99.90
2022-09-24T22:09:28.915Z,99.90
2022-09-24T22:12:00.171Z,99.90
2022-09-24T22:14:28.209Z,99.90
2022-09-24T22:16:56.567Z,99.90
2022-09-24T22:19:24.761Z,99.90
2022-09-24T22:21:52.419Z,99.90
2022-09-24T22:24:20.277Z,99.90
2022-09-24T22:26:48.544Z,99.90
2022-09-24T22:29:16.515Z,99.90
2022-09-24T22:31:44.020Z,99.90
2022-09-24T22:34:30.026Z,99.90
2022-09-24T22:36:57.660Z,99.90
2022-09-24T22:39:25.194Z,99.90
2022-09-24T22:41:53.036Z,99.90
2022-09-24T22:44:20.650Z,99.90
2022-09-24T22:46:48.182Z,99.90
2022-09-24T22:49:16.696Z,99.90
2022-09-24T22:51:44.542Z,99.90
2022-09-24T22:54:13.121Z,99.90
2022-09-24T22:56:40.919Z,99.90
2022-09-24T22:59:08.432Z,99.90
2022-09-24T23:01:41.015Z,99.90
2022-09-24T23:04:10.565Z,99.90
2022-09-24T23:06:38.228Z,99.90
2022-09-24T23:09:06.050Z,99.90
2022-09-24T23:11:35.386Z,99.90
2022-09-24T23:14:11.597Z,99.90
2022-09-24T23:16:39.735Z,99.90
2022-09-24T23:19:15.972Z,99.90
2022-09-24T23:21:44.231Z,99.90
2022-09-24T23:24:20.207Z,99.90
2022-09-24T23:26:47.904Z,99.90
2022-09-24T23:29:15.632Z,99.90
2022-09-24T23:31:43.328Z,99.90
2022-09-24T23:34:13.096Z,99.90
2022-09-24T23:36:40.817Z,99.90
2022-09-24T23:39:08.316Z,99.90
2022-09-24T23:41:35.988Z,99.90
2022-09-24T23:44:04.238Z,99.90
2022-09-24T23:46:33.817Z,99.90
2022-09-24T23:49:01.568Z,99.90
2022-09-24T23:51:29.244Z,99.90
2022-09-24T23:53:56.878Z,99.90
2022-09-24T23:56:24.455Z,99.90
2022-09-24T23:58:51.967Z,99.90
